createdAt,value
2023-05-03T00:00:49.750Z,11.82
2023-05-03T00:01:49.740Z,12.15
2023-05-03T00:02:49.742Z,11.82
2023-05-03T00:03:49.719Z,11.82
2023-05-03T00:04:49.718Z,11.50
2023-05-03T00:05:49.688Z,11.82
2023-05-03T00:06:49.712Z,11.82
2023-05-03T00:07:49.665Z,11.82
2023-05-03T00:08:49.680Z,12.15
2023-05-03T00:09:49.634Z,12.15
2023-05-03T00:10:49.627Z,11.82
2023-05-03T00:11:49.602Z,11.50
2023-05-03T00:12:49.602Z,11.82
2023-05-03T00:13:49.576Z,12.15
2023-05-03T00:14:49.564Z,11.82
2023-05-03T00:15:49.555Z,11.82
2023-05-03T00:16:49.660Z,11.82
2023-05-03T00:17:49.589Z,12.47
2023-05-03T00:18:49.592Z,12.15
2023-05-03T00:19:49.512Z,11.50
2023-05-03T00:20:49.487Z,11.82
2023-05-03T00:21:49.480Z,11.82
2023-05-03T00:22:49.464Z,12.15
2023-05-03T00:23:49.449Z,11.82
2023-05-03T00:24:49.460Z,11.82
2023-05-03T00:25:49.419Z,11.82
2023-05-03T00:26:49.405Z,11.82
2023-05-03T00:27:49.416Z,12.15
2023-05-03T00:28:49.379Z,11.82
2023-05-03T00:29:49.379Z,11.82
2023-05-03T00:30:49.415Z,11.82
2023-05-03T00:31:49.364Z,12.15
2023-05-03T00:32:49.427Z,12.15
2023-05-03T00:33:49.324Z,11.82
2023-05-03T00:34:49.306Z,11.50
2023-05-03T00:35:49.298Z,12.15
2023-05-03T00:36:49.295Z,12.15
2023-05-03T00:37:49.284Z,11.50
2023-05-03T00:38:49.254Z,11.50
2023-05-03T00:39:49.259Z,11.82
2023-05-03T00:40:49.266Z,12.15
2023-05-03T00:41:49.237Z,12.47
2023-05-03T00:42:49.217Z,11.82
2023-05-03T00:43:49.188Z,11.18
2023-05-03T00:44:49.173Z,11.82
2023-05-03T00:45:49.173Z,11.82
2023-05-03T00:46:49.173Z,11.82
2023-05-03T00:47:49.162Z,11.50
2023-05-03T00:48:49.135Z,12.15
2023-05-03T00:49:49.111Z,11.82
2023-05-03T00:50:49.105Z,11.50
2023-05-03T00:51:49.100Z,12.15
2023-05-03T00:52:49.071Z,11.82
2023-05-03T00:53:49.077Z,11.82
2023-05-03T00:54:49.067Z,11.82
2023-05-03T00:55:49.035Z,12.15
2023-05-03T00:56:51.842Z,11.82
2023-05-03T00:57:49.015Z,11.18
2023-05-03T00:58:48.997Z,11.50
2023-05-03T00:59:48.993Z,11.82
2023-05-03T01:00:48.976Z,11.82
2023-05-03T01:01:49.008Z,11.82
2023-05-03T01:02:49.000Z,12.15
2023-05-03T01:03:49.030Z,11.82
2023-05-03T01:04:48.918Z,11.50
2023-05-03T01:05:48.911Z,11.18
2023-05-03T01:06:48.996Z,11.50
2023-05-03T01:07:48.889Z,11.82
2023-05-03T01:08:48.870Z,11.82
2023-05-03T01:09:48.863Z,11.82
2023-05-03T01:10:48.836Z,11.50
2023-05-03T01:11:48.836Z,12.15
2023-05-03T01:12:48.831Z,11.82
2023-05-03T01:13:48.808Z,11.82
2023-05-03T01:14:48.798Z,11.82
2023-05-03T01:15:48.792Z,11.82
2023-05-03T01:16:48.760Z,11.18
2023-05-03T01:17:48.792Z,11.50
2023-05-03T01:18:48.740Z,11.50
2023-05-03T01:19:48.722Z,11.82
2023-05-03T01:20:48.712Z,11.50
2023-05-03T01:21:48.698Z,11.50
2023-05-03T01:22:48.695Z,11.82
2023-05-03T01:23:48.665Z,12.15
2023-05-03T01:24:48.670Z,11.82
2023-05-03T01:25:48.637Z,11.50
2023-05-03T01:26:48.652Z,11.50
2023-05-03T01:27:48.619Z,11.82
2023-05-03T01:28:48.632Z,11.82
2023-05-03T01:29:48.607Z,11.50
2023-05-03T01:30:48.586Z,11.50
2023-05-03T01:31:48.594Z,11.82
2023-05-03T01:32:48.692Z,11.82
2023-05-03T01:33:48.544Z,11.50
2023-05-03T01:34:48.540Z,11.50
2023-05-03T01:35:48.527Z,11.50
2023-05-03T01:36:48.505Z,11.82
2023-05-03T01:37:48.497Z,11.82
2023-05-03T01:38:48.473Z,12.15
2023-05-03T01:39:48.469Z,11.18
2023-05-03T01:40:48.465Z,11.82
2023-05-03T01:41:48.434Z,11.50
2023-05-03T01:42:48.429Z,11.82
2023-05-03T01:43:48.419Z,11.50
2023-05-03T01:44:48.419Z,11.50
2023-05-03T01:45:48.460Z,11.18
2023-05-03T01:46:48.371Z,11.82
2023-05-03T01:47:48.418Z,12.15
2023-05-03T01:48:48.348Z,12.15
2023-05-03T01:49:48.359Z,11.50
2023-05-03T01:50:48.320Z,11.50
2023-05-03T01:51:48.302Z,12.15
2023-05-03T01:52:48.303Z,11.82
2023-05-03T01:53:48.289Z,11.82
2023-05-03T01:54:48.278Z,11.82
2023-05-03T01:55:48.272Z,11.50
2023-05-03T01:56:48.251Z,11.82
2023-05-03T01:57:48.230Z,11.82
2023-05-03T01:58:48.221Z,12.15
2023-05-03T01:59:48.215Z,11.50
2023-05-03T02:00:48.246Z,11.82
2023-05-03T02:01:48.179Z,12.15
2023-05-03T02:02:48.200Z,11.18
2023-05-03T02:03:48.164Z,11.82
2023-05-03T02:04:48.265Z,11.18
2023-05-03T02:05:48.138Z,11.50
2023-05-03T02:06:48.179Z,11.50
2023-05-03T02:07:48.105Z,11.50
2023-05-03T02:08:48.098Z,11.50
2023-05-03T02:09:48.080Z,11.18
2023-05-03T02:10:48.067Z,11.50
2023-05-03T02:11:48.051Z,11.82
2023-05-03T02:12:48.048Z,11.50
2023-05-03T02:13:48.026Z,11.18
2023-05-03T02:14:48.040Z,11.50
2023-05-03T02:15:48.005Z,11.50
2023-05-03T02:16:48.038Z,11.18
2023-05-03T02:17:48.032Z,11.18
2023-05-03T02:18:47.967Z,11.82
2023-05-03T02:19:47.946Z,11.82
2023-05-03T02:20:47.949Z,11.50
2023-05-03T02:21:47.930Z,11.18
2023-05-03T02:22:47.911Z,11.50
2023-05-03T02:23:47.900Z,11.50
2023-05-03T02:24:47.898Z,12.15
2023-05-03T02:25:47.878Z,11.18
2023-05-03T02:26:47.874Z,10.86
2023-05-03T02:27:47.857Z,11.50
2023-05-03T02:28:47.828Z,11.50
2023-05-03T02:29:47.830Z,11.82
2023-05-03T02:30:47.815Z,10.86
2023-05-03T02:31:47.800Z,11.50
2023-05-03T02:32:47.830Z,11.18
2023-05-03T02:33:47.780Z,11.82
2023-05-03T02:34:47.758Z,11.82
2023-05-03T02:35:47.749Z,11.50
2023-05-03T02:36:47.724Z,11.82
2023-05-03T02:37:47.712Z,11.18
2023-05-03T02:38:47.721Z,11.18
2023-05-03T02:39:47.693Z,11.50
2023-05-03T02:40:47.671Z,11.82
2023-05-03T02:41:47.661Z,10.86
2023-05-03T02:42:47.648Z,12.15
2023-05-03T02:43:47.631Z,11.50
2023-05-03T02:44:47.627Z,11.50
2023-05-03T02:45:47.645Z,11.82
2023-05-03T02:46:47.615Z,11.18
2023-05-03T02:47:47.616Z,11.82
2023-05-03T02:48:47.593Z,11.50
2023-05-03T02:49:47.566Z,11.50
2023-05-03T02:50:47.547Z,11.50
2023-05-03T02:51:47.542Z,10.86
2023-05-03T02:52:47.517Z,10.86
2023-05-03T02:53:47.510Z,10.86
2023-05-03T02:54:47.495Z,11.50
2023-05-03T02:55:47.485Z,11.50
2023-05-03T02:56:47.469Z,11.50
2023-05-03T02:57:47.453Z,11.82
2023-05-03T02:58:47.450Z,11.50
2023-05-03T02:59:47.435Z,11.50
2023-05-03T03:00:47.411Z,11.18
2023-05-03T03:01:47.416Z,11.50
2023-05-03T03:02:47.512Z,11.50
2023-05-03T03:03:47.467Z,11.18
2023-05-03T03:04:47.383Z,11.50
2023-05-03T03:05:47.358Z,10.86
2023-05-03T03:06:47.390Z,11.18
2023-05-03T03:07:47.330Z,11.18
2023-05-03T03:08:47.315Z,11.82
2023-05-03T03:09:47.295Z,10.86
2023-05-03T03:10:47.299Z,11.50
2023-05-03T03:11:47.280Z,11.18
2023-05-03T03:12:47.260Z,11.50
2023-05-03T03:13:47.253Z,11.50
2023-05-03T03:14:47.262Z,10.21
2023-05-03T03:15:47.287Z,11.18
2023-05-03T03:16:47.213Z,11.50
2023-05-03T03:17:47.263Z,11.18
2023-05-03T03:18:47.174Z,10.86
2023-05-03T03:19:47.181Z,11.50
2023-05-03T03:20:47.194Z,11.50
2023-05-03T03:21:47.140Z,11.18
2023-05-03T03:22:47.146Z,10.86
2023-05-03T03:23:47.127Z,11.18
2023-05-03T03:24:47.108Z,11.50
2023-05-03T03:25:47.088Z,11.50
2023-05-03T03:26:47.083Z,11.50
2023-05-03T03:27:47.062Z,10.86
2023-05-03T03:28:47.051Z,11.50
2023-05-03T03:29:47.040Z,10.86
2023-05-03T03:30:47.025Z,10.86
2023-05-03T03:31:47.034Z,11.18
2023-05-03T03:32:47.053Z,11.18
2023-05-03T03:33:46.983Z,11.18
2023-05-03T03:34:46.982Z,11.18
2023-05-03T03:35:46.966Z,11.18
2023-05-03T03:36:46.969Z,11.18
2023-05-03T03:37:46.943Z,11.18
2023-05-03T03:38:46.922Z,10.86
2023-05-03T03:39:46.918Z,10.86
2023-05-03T03:40:46.892Z,11.18
2023-05-03T03:41:46.889Z,11.50
2023-05-03T03:42:46.872Z,11.18
2023-05-03T03:43:46.882Z,10.86
2023-05-03T03:44:46.842Z,11.18
2023-05-03T03:45:46.840Z,10.86
2023-05-03T03:46:46.861Z,11.82
2023-05-03T03:47:46.855Z,11.50
2023-05-03T03:48:46.803Z,11.18
2023-05-03T03:49:46.790Z,11.18
2023-05-03T03:50:46.768Z,11.18
2023-05-03T03:51:46.753Z,10.86
2023-05-03T03:52:46.762Z,10.86
2023-05-03T03:53:46.736Z,10.54
2023-05-03T03:54:46.713Z,10.54
2023-05-03T03:55:46.705Z,11.82
2023-05-03T03:56:46.695Z,10.86
2023-05-03T03:57:46.680Z,11.18
2023-05-03T03:58:46.670Z,11.50
2023-05-03T03:59:46.682Z,11.50
2023-05-03T04:00:46.641Z,10.86
2023-05-03T04:01:46.669Z,11.50
2023-05-03T04:02:47.531Z,11.18
2023-05-03T04:03:46.738Z,11.18
2023-05-03T04:04:46.594Z,12.15
2023-05-03T04:05:46.590Z,10.86
2023-05-03T04:06:46.602Z,11.18
2023-05-03T04:07:46.581Z,11.50
2023-05-03T04:08:46.569Z,10.86
2023-05-03T04:09:46.540Z,11.50
2023-05-03T04:10:46.501Z,11.18
2023-05-03T04:11:46.512Z,10.86
2023-05-03T04:12:46.487Z,10.86
2023-05-03T04:13:46.479Z,11.18
2023-05-03T04:14:46.465Z,11.50
2023-05-03T04:15:46.448Z,10.86
2023-05-03T04:16:46.441Z,10.86
2023-05-03T04:17:46.482Z,11.18
2023-05-03T04:18:46.404Z,11.82
2023-05-03T04:19:46.393Z,11.18
2023-05-03T04:20:46.384Z,11.18
2023-05-03T04:21:46.362Z,10.86
2023-05-03T04:22:46.350Z,11.18
2023-05-03T04:23:46.339Z,10.54
2023-05-03T04:24:46.366Z,10.86
2023-05-03T04:25:46.311Z,11.18
2023-05-03T04:26:46.302Z,10.86
2023-05-03T04:27:46.300Z,10.54
2023-05-03T04:28:46.285Z,11.18
2023-05-03T04:29:46.267Z,10.54
2023-05-03T04:30:46.362Z,11.18
2023-05-03T04:31:46.237Z,10.54
2023-05-03T04:32:46.246Z,10.86
2023-05-03T04:33:46.220Z,10.86
2023-05-03T04:34:48.476Z,11.50
2023-05-03T04:35:46.196Z,10.54
2023-05-03T04:36:46.170Z,11.50
2023-05-03T04:37:46.161Z,10.86
2023-05-03T04:38:46.140Z,11.18
2023-05-03T04:39:46.139Z,10.86
2023-05-03T04:40:46.150Z,11.50
2023-05-03T04:41:46.102Z,11.82
2023-05-03T04:42:46.095Z,11.18
2023-05-03T04:43:46.080Z,11.18
2023-05-03T04:44:46.058Z,10.86
2023-05-03T04:45:46.057Z,11.50
2023-05-03T04:46:47.187Z,11.18
2023-05-03T04:47:46.056Z,11.18
2023-05-03T04:48:46.030Z,10.86
2023-05-03T04:49:46.005Z,10.86
2023-05-03T04:50:45.996Z,10.86
2023-05-03T04:51:45.984Z,10.86
2023-05-03T04:52:45.964Z,10.86
2023-05-03T04:53:45.948Z,10.86
2023-05-03T04:54:45.935Z,11.18
2023-05-03T04:55:45.928Z,10.86
2023-05-03T04:56:45.934Z,10.86
2023-05-03T04:57:45.905Z,9.89
2023-05-03T04:58:45.883Z,11.50
2023-05-03T04:59:45.868Z,11.82
2023-05-03T05:00:45.856Z,11.18
2023-05-03T05:01:45.880Z,11.18
2023-05-03T05:02:45.950Z,11.18
2023-05-03T05:03:45.952Z,9.89
2023-05-03T05:04:45.810Z,10.86
2023-05-03T05:05:45.784Z,11.18
2023-05-03T05:06:45.858Z,11.18
2023-05-03T05:07:45.757Z,11.18
2023-05-03T05:08:45.740Z,11.50
2023-05-03T05:09:45.738Z,10.86
2023-05-03T05:10:45.718Z,11.18
2023-05-03T05:11:45.696Z,10.86
2023-05-03T05:12:45.802Z,10.86
2023-05-03T05:13:45.684Z,11.50
2023-05-03T05:14:45.662Z,11.50
2023-05-03T05:15:45.650Z,10.54
2023-05-03T05:16:45.711Z,11.50
2023-05-03T05:17:45.677Z,11.18
2023-05-03T05:18:45.614Z,10.86
2023-05-03T05:19:45.605Z,10.86
2023-05-03T05:20:45.589Z,11.18
2023-05-03T05:21:45.581Z,10.21
2023-05-03T05:22:45.553Z,10.21
2023-05-03T05:23:45.553Z,10.86
2023-05-03T05:24:45.544Z,10.54
2023-05-03T05:25:45.523Z,10.54
2023-05-03T05:26:45.520Z,11.18
2023-05-03T05:27:45.490Z,10.86
2023-05-03T05:28:45.505Z,11.18
2023-05-03T05:29:45.484Z,10.86
2023-05-03T05:30:45.464Z,10.86
2023-05-03T05:31:45.486Z,10.21
2023-05-03T05:32:45.446Z,10.86
2023-05-03T05:33:45.418Z,10.54
2023-05-03T05:34:45.869Z,11.18
2023-05-03T05:35:45.391Z,11.18
2023-05-03T05:36:45.380Z,10.54
2023-05-03T05:37:45.363Z,10.86
2023-05-03T05:38:45.358Z,10.54
2023-05-03T05:39:45.332Z,11.50
2023-05-03T05:40:45.316Z,11.50
2023-05-03T05:41:45.317Z,11.50
2023-05-03T05:42:45.293Z,10.54
2023-05-03T05:43:45.279Z,10.54
2023-05-03T05:44:45.302Z,10.21
2023-05-03T05:45:45.286Z,10.54
2023-05-03T05:46:45.292Z,11.18
2023-05-03T05:47:45.256Z,10.54
2023-05-03T05:48:45.219Z,10.86
2023-05-03T05:49:45.253Z,10.86
2023-05-03T05:50:45.204Z,10.54
2023-05-03T05:51:45.203Z,11.18
2023-05-03T05:52:45.163Z,10.54
2023-05-03T05:53:45.170Z,10.54
2023-05-03T05:54:45.159Z,10.54
2023-05-03T05:55:45.132Z,10.21
2023-05-03T05:56:45.196Z,10.86
2023-05-03T05:57:45.105Z,10.86
2023-05-03T05:58:45.127Z,10.86
2023-05-03T05:59:45.071Z,10.54
2023-05-03T06:00:45.140Z,10.54
2023-05-03T06:01:45.074Z,10.54
2023-05-03T06:02:45.133Z,10.21
2023-05-03T06:03:45.036Z,10.54
2023-05-03T06:04:45.056Z,11.18
2023-05-03T06:05:45.083Z,10.86
2023-05-03T06:06:45.067Z,10.54
2023-05-03T06:07:44.969Z,10.54
2023-05-03T06:08:44.958Z,10.86
2023-05-03T06:09:44.951Z,11.18
2023-05-03T06:10:44.955Z,10.54
2023-05-03T06:11:44.922Z,10.86
2023-05-03T06:12:44.919Z,10.86
2023-05-03T06:13:44.904Z,10.86
2023-05-03T06:15:01.059Z,10.86
2023-05-03T06:15:45.916Z,11.18
2023-05-03T06:16:44.941Z,10.86
2023-05-03T06:17:44.849Z,11.18
2023-05-03T06:18:44.844Z,10.86
2023-05-03T06:19:45.224Z,10.54
2023-05-03T06:20:44.800Z,10.21
2023-05-03T06:21:44.791Z,10.21
2023-05-03T06:22:44.776Z,11.18
2023-05-03T06:23:44.761Z,10.54
2023-05-03T06:24:44.746Z,10.54
2023-05-03T06:25:44.732Z,10.86
2023-05-03T06:26:44.751Z,10.86
2023-05-03T06:27:44.705Z,11.18
2023-05-03T06:28:44.703Z,10.54
2023-05-03T06:29:44.681Z,10.86
2023-05-03T06:30:44.705Z,11.18
2023-05-03T06:31:44.749Z,10.54
2023-05-03T06:32:44.724Z,10.54
2023-05-03T06:33:44.630Z,10.86
2023-05-03T06:34:44.615Z,10.21
2023-05-03T06:35:44.616Z,10.86
2023-05-03T06:36:44.596Z,10.21
2023-05-03T06:37:44.590Z,10.21
2023-05-03T06:38:44.578Z,10.86
2023-05-03T06:39:44.618Z,11.18
2023-05-03T06:40:44.539Z,10.86
2023-05-03T06:41:44.536Z,10.86
2023-05-03T06:42:44.519Z,10.54
2023-05-03T06:43:44.507Z,10.54
2023-05-03T06:44:44.479Z,10.86
2023-05-03T06:45:44.511Z,10.86
2023-05-03T06:46:44.523Z,10.86
2023-05-03T06:47:44.482Z,10.54
2023-05-03T06:48:44.515Z,10.86
2023-05-03T06:49:44.430Z,10.54
2023-05-03T06:50:44.429Z,11.50
2023-05-03T06:51:44.388Z,10.21
2023-05-03T06:52:44.403Z,11.18
2023-05-03T06:53:44.361Z,11.18
2023-05-03T06:54:44.360Z,10.86
2023-05-03T06:55:44.342Z,10.54
2023-05-03T06:56:44.327Z,10.54
2023-05-03T06:57:44.324Z,10.86
2023-05-03T06:58:44.303Z,10.54
2023-05-03T06:59:44.288Z,10.86
2023-05-03T07:00:44.280Z,10.86
2023-05-03T07:01:44.353Z,10.86
2023-05-03T07:02:44.319Z,10.54
2023-05-03T07:03:44.396Z,10.86
2023-05-03T07:04:44.254Z,10.86
2023-05-03T07:05:44.285Z,10.54
2023-05-03T07:06:55.294Z,10.54
2023-05-03T07:07:45.220Z,11.18
2023-05-03T07:08:44.184Z,10.86
2023-05-03T07:09:44.349Z,10.21
2023-05-03T07:10:44.157Z,11.18
2023-05-03T07:11:44.149Z,10.86
2023-05-03T07:12:44.199Z,10.54
2023-05-03T07:13:44.111Z,10.21
2023-05-03T07:14:44.103Z,10.86
2023-05-03T07:15:44.161Z,10.86
2023-05-03T07:16:44.222Z,10.54
2023-05-03T07:17:44.120Z,10.54
2023-05-03T07:18:44.070Z,10.86
2023-05-03T07:19:44.033Z,10.54
2023-05-03T07:20:44.440Z,10.21
2023-05-03T07:21:44.002Z,11.18
2023-05-03T07:22:44.011Z,10.21
2023-05-03T07:23:43.992Z,10.86
2023-05-03T07:24:43.978Z,10.54
2023-05-03T07:25:43.960Z,10.21
2023-05-03T07:26:44.670Z,10.54
2023-05-03T07:27:43.930Z,10.54
2023-05-03T07:28:43.915Z,10.54
2023-05-03T07:29:43.898Z,10.86
2023-05-03T07:30:43.893Z,11.18
2023-05-03T07:31:43.886Z,10.54
2023-05-03T07:32:43.919Z,10.54
2023-05-03T07:33:43.935Z,10.54
2023-05-03T07:34:43.830Z,11.18
2023-05-03T07:35:43.828Z,10.86
2023-05-03T07:36:44.010Z,10.86
2023-05-03T07:37:43.799Z,10.54
2023-05-03T07:38:43.786Z,10.86
2023-05-03T07:39:43.772Z,10.54
2023-05-03T07:40:43.766Z,10.86
2023-05-03T07:41:43.744Z,10.86
2023-05-03T07:42:43.736Z,10.54
2023-05-03T07:43:43.712Z,11.18
2023-05-03T07:44:43.697Z,11.18
2023-05-03T07:45:43.745Z,10.86
2023-05-03T07:46:43.693Z,10.86
2023-05-03T07:47:43.705Z,10.86
2023-05-03T07:48:43.648Z,10.54
2023-05-03T07:49:43.643Z,10.21
2023-05-03T07:50:43.643Z,10.54
2023-05-03T07:51:43.617Z,10.21
2023-05-03T07:52:43.632Z,10.86
2023-05-03T07:53:43.593Z,11.18
2023-05-03T07:54:43.566Z,10.21
2023-05-03T07:55:43.579Z,9.89
2023-05-03T07:56:43.552Z,10.86
2023-05-03T07:57:43.524Z,10.54
2023-05-03T07:58:45.064Z,10.21
2023-05-03T07:59:43.536Z,10.54
2023-05-03T08:00:43.518Z,10.86
2023-05-03T08:01:43.490Z,10.54
2023-05-03T08:02:43.596Z,10.86
2023-05-03T08:03:43.909Z,10.54
2023-05-03T08:04:43.741Z,10.21
2023-05-03T08:05:43.469Z,10.54
2023-05-03T08:06:43.457Z,10.21
2023-05-03T08:07:43.409Z,10.21
2023-05-03T08:08:43.450Z,10.86
2023-05-03T08:09:43.387Z,10.54
2023-05-03T08:10:43.361Z,10.86
2023-05-03T08:11:44.433Z,10.21
2023-05-03T08:12:43.340Z,11.50
2023-05-03T08:13:43.340Z,10.54
2023-05-03T08:14:43.363Z,10.21
2023-05-03T08:15:43.324Z,10.21
2023-05-03T08:16:43.285Z,9.89
2023-05-03T08:17:43.428Z,10.54
2023-05-03T08:18:43.263Z,10.54
2023-05-03T08:19:43.271Z,11.18
2023-05-03T08:20:43.261Z,10.86
2023-05-03T08:21:43.235Z,9.89
2023-05-03T08:22:43.260Z,10.54
2023-05-03T08:23:43.199Z,10.21
2023-05-03T08:24:43.294Z,10.21
2023-05-03T08:25:43.174Z,10.86
2023-05-03T08:26:43.154Z,10.21
2023-05-03T08:27:43.143Z,10.21
2023-05-03T08:28:43.175Z,11.18
2023-05-03T08:29:43.225Z,10.86
2023-05-03T08:30:43.099Z,10.86
2023-05-03T08:31:43.134Z,10.86
2023-05-03T08:32:43.105Z,10.54
2023-05-03T08:33:43.063Z,10.54
2023-05-03T08:34:43.050Z,10.86
2023-05-03T08:35:43.044Z,10.86
2023-05-03T08:36:43.031Z,10.86
2023-05-03T08:37:43.014Z,10.21
2023-05-03T08:38:43.028Z,10.54
2023-05-03T08:39:42.984Z,10.86
2023-05-03T08:40:43.020Z,10.86
2023-05-03T08:41:42.968Z,10.21
2023-05-03T08:42:42.989Z,10.86
2023-05-03T08:43:42.943Z,10.54
2023-05-03T08:44:42.936Z,9.89
2023-05-03T08:45:42.918Z,10.54
2023-05-03T08:46:42.932Z,10.54
2023-05-03T08:47:42.912Z,10.54
2023-05-03T08:48:42.868Z,10.54
2023-05-03T08:49:42.869Z,10.86
2023-05-03T08:50:42.868Z,10.54
2023-05-03T08:51:42.829Z,10.21
2023-05-03T08:52:42.836Z,10.54
2023-05-03T08:53:42.822Z,10.54
2023-05-03T08:54:43.262Z,10.21
2023-05-03T08:55:42.788Z,10.21
2023-05-03T08:56:42.833Z,10.21
2023-05-03T08:57:42.773Z,10.21
2023-05-03T08:58:42.755Z,10.86
2023-05-03T08:59:42.729Z,10.21
2023-05-03T09:00:42.719Z,10.54
2023-05-03T09:01:42.771Z,10.54
2023-05-03T09:02:43.012Z,10.86
2023-05-03T09:03:42.731Z,10.86
2023-05-03T09:04:42.662Z,10.54
2023-05-03T09:05:42.665Z,10.86
2023-05-03T09:06:42.708Z,11.18
2023-05-03T09:07:42.626Z,10.21
2023-05-03T09:08:42.621Z,10.54
2023-05-03T09:09:43.876Z,10.54
2023-05-03T09:10:42.600Z,10.86
2023-05-03T09:11:42.578Z,10.86
2023-05-03T09:12:42.592Z,10.86
2023-05-03T09:13:42.546Z,10.54
2023-05-03T09:14:42.532Z,10.21
2023-05-03T09:15:42.530Z,10.21
2023-05-03T09:16:42.560Z,10.54
2023-05-03T09:17:42.511Z,9.89
2023-05-03T09:18:42.493Z,10.54
2023-05-03T09:19:42.476Z,9.89
2023-05-03T09:20:42.464Z,10.54
2023-05-03T09:21:42.446Z,10.54
2023-05-03T09:22:42.444Z,10.86
2023-05-03T09:23:42.436Z,10.54
2023-05-03T09:24:42.408Z,10.54
2023-05-03T09:25:42.396Z,10.21
2023-05-03T09:26:42.406Z,10.21
2023-05-03T09:27:42.367Z,10.54
2023-05-03T09:28:42.391Z,10.86
2023-05-03T09:29:42.360Z,10.21
2023-05-03T09:30:42.356Z,10.86
2023-05-03T09:31:42.352Z,10.86
2023-05-03T09:32:42.351Z,10.21
2023-05-03T09:33:42.289Z,10.54
2023-05-03T09:34:42.277Z,10.21
2023-05-03T09:35:42.262Z,10.54
2023-05-03T09:36:44.023Z,10.21
2023-05-03T09:37:42.252Z,9.89
2023-05-03T09:38:42.250Z,10.54
2023-05-03T09:39:42.222Z,10.86
2023-05-03T09:40:42.207Z,10.54
2023-05-03T09:41:42.191Z,10.86
2023-05-03T09:42:42.173Z,9.89
2023-05-03T09:43:42.169Z,10.86
2023-05-03T09:44:42.176Z,10.21
2023-05-03T09:45:42.211Z,10.54
2023-05-03T09:46:42.130Z,10.54
2023-05-03T09:47:42.134Z,11.18
2023-05-03T09:48:42.110Z,10.54
2023-05-03T09:49:42.089Z,10.54
2023-05-03T09:50:42.081Z,11.18
2023-05-03T09:51:42.063Z,10.86
2023-05-03T09:52:42.089Z,10.54
2023-05-03T09:53:42.031Z,10.86
2023-05-03T09:54:42.029Z,10.86
2023-05-03T09:55:42.021Z,10.54
2023-05-03T09:56:42.006Z,9.89
2023-05-03T09:57:41.989Z,10.54
2023-05-03T09:58:41.981Z,10.54
2023-05-03T09:59:41.969Z,10.54
2023-05-03T10:00:42.055Z,10.21
2023-05-03T10:01:41.988Z,10.54
2023-05-03T10:02:41.953Z,10.54
2023-05-03T10:03:41.989Z,10.54
2023-05-03T10:04:41.896Z,10.21
2023-05-03T10:05:41.895Z,10.54
2023-05-03T10:06:41.899Z,10.21
2023-05-03T10:07:41.863Z,11.18
2023-05-03T10:08:41.839Z,10.86
2023-05-03T10:09:41.835Z,10.54
2023-05-03T10:10:41.815Z,10.54
2023-05-03T10:11:41.814Z,10.21
2023-05-03T10:12:41.792Z,11.18
2023-05-03T10:13:41.781Z,10.86
2023-05-03T10:14:41.770Z,10.21
2023-05-03T10:15:41.782Z,10.54
2023-05-03T10:16:41.768Z,9.89
2023-05-03T10:17:48.021Z,10.21
2023-05-03T10:18:42.737Z,10.54
2023-05-03T10:19:41.721Z,9.89
2023-05-03T10:20:41.711Z,10.21
2023-05-03T10:21:41.682Z,10.86
2023-05-03T10:22:41.661Z,10.86
2023-05-03T10:23:41.652Z,10.86
2023-05-03T10:24:41.632Z,10.54
2023-05-03T10:25:41.634Z,10.86
2023-05-03T10:26:41.620Z,10.54
2023-05-03T10:27:41.599Z,10.54
2023-05-03T10:28:41.588Z,10.86
2023-05-03T10:29:41.569Z,10.86
2023-05-03T10:30:41.556Z,10.54
2023-05-03T10:31:41.616Z,10.54
2023-05-03T10:32:41.626Z,10.54
2023-05-03T10:33:41.528Z,10.86
2023-05-03T10:34:41.529Z,10.54
2023-05-03T10:35:41.496Z,10.54
2023-05-03T10:36:49.534Z,10.86
2023-05-03T10:37:42.512Z,10.86
2023-05-03T10:38:41.456Z,10.54
2023-05-03T10:39:41.441Z,10.54
2023-05-03T10:40:41.429Z,10.86
2023-05-03T10:41:41.410Z,10.86
2023-05-03T10:42:41.405Z,10.86
2023-05-03T10:43:41.400Z,9.89
2023-05-03T10:44:41.380Z,10.21
2023-05-03T10:45:41.357Z,10.54
2023-05-03T10:46:41.412Z,10.86
2023-05-03T10:47:41.361Z,10.86
2023-05-03T10:48:41.401Z,9.89
2023-05-03T10:49:41.346Z,10.86
2023-05-03T10:50:41.318Z,10.86
2023-05-03T10:51:41.286Z,10.86
2023-05-03T10:52:41.271Z,10.21
2023-05-03T10:53:41.339Z,10.86
2023-05-03T10:54:41.264Z,10.86
2023-05-03T10:55:41.244Z,10.54
2023-05-03T10:56:41.234Z,10.21
2023-05-03T10:57:41.197Z,10.54
2023-05-03T10:58:41.411Z,10.54
2023-05-03T10:59:41.370Z,10.54
2023-05-03T11:00:41.186Z,10.54
2023-05-03T11:01:41.182Z,10.86
2023-05-03T11:02:41.210Z,10.86
2023-05-03T11:03:41.128Z,10.21
2023-05-03T11:04:41.218Z,10.54
2023-05-03T11:05:41.308Z,10.54
2023-05-03T11:06:41.316Z,10.54
2023-05-03T11:07:41.075Z,10.54
2023-05-03T11:08:41.267Z,10.21
2023-05-03T11:09:41.254Z,10.54
2023-05-03T11:10:41.240Z,10.86
2023-05-03T11:11:41.143Z,10.86
2023-05-03T11:12:41.016Z,10.21
2023-05-03T11:13:41.136Z,10.86
2023-05-03T11:14:41.007Z,10.86
2023-05-03T11:15:40.983Z,10.54
2023-05-03T11:16:41.043Z,10.54
2023-05-03T11:17:41.191Z,10.21
2023-05-03T11:18:40.943Z,10.86
2023-05-03T11:19:40.951Z,10.54
2023-05-03T11:20:40.942Z,10.54
2023-05-03T11:21:40.886Z,10.54
2023-05-03T11:22:40.876Z,10.21
2023-05-03T11:23:41.068Z,10.86
2023-05-03T11:24:46.861Z,10.86
2023-05-03T11:25:40.843Z,10.54
2023-05-03T11:26:41.053Z,10.21
2023-05-03T11:27:47.806Z,10.54
2023-05-03T11:28:40.799Z,10.21
2023-05-03T11:29:40.996Z,10.86
2023-05-03T11:30:40.773Z,9.89
2023-05-03T11:31:42.208Z,10.54
2023-05-03T11:32:40.779Z,10.21
2023-05-03T11:33:40.741Z,10.54
2023-05-03T11:34:40.724Z,10.21
2023-05-03T11:35:40.904Z,10.21
2023-05-03T11:36:40.736Z,10.54
2023-05-03T11:37:40.697Z,10.54
2023-05-03T11:38:40.660Z,10.21
2023-05-03T11:39:40.650Z,10.86
2023-05-03T11:40:40.645Z,10.54
2023-05-03T11:41:40.629Z,10.86
2023-05-03T11:42:40.621Z,9.89
2023-05-03T11:43:40.622Z,10.54
2023-05-03T11:44:40.584Z,9.89
2023-05-03T11:45:40.621Z,10.86
2023-05-03T11:46:40.622Z,10.86
2023-05-03T11:47:40.646Z,10.54
2023-05-03T11:48:40.555Z,10.21
2023-05-03T11:49:40.528Z,10.54
2023-05-03T11:50:40.529Z,11.18
2023-05-03T11:51:40.508Z,10.21
2023-05-03T11:52:40.524Z,10.86
2023-05-03T11:53:40.577Z,10.86
2023-05-03T11:54:40.455Z,10.54
2023-05-03T11:55:40.451Z,10.54
2023-05-03T11:56:40.434Z,10.86
2023-05-03T11:57:40.430Z,10.54
2023-05-03T11:58:40.426Z,10.54
2023-05-03T11:59:40.722Z,10.54
2023-05-03T12:00:40.383Z,10.54
2023-05-03T12:01:40.430Z,10.54
2023-05-03T12:02:40.676Z,10.86
2023-05-03T12:03:40.717Z,10.86
2023-05-03T12:04:40.486Z,10.54
2023-05-03T12:05:40.994Z,10.86
2023-05-03T12:06:42.473Z,10.54
2023-05-03T12:07:40.710Z,10.54
2023-05-03T12:08:43.464Z,10.54
2023-05-03T12:09:40.902Z,10.21
2023-05-03T12:10:40.928Z,11.18
2023-05-03T12:11:40.476Z,11.50
2023-05-03T12:12:43.012Z,10.54
2023-05-03T12:13:41.578Z,10.86
2023-05-03T12:14:41.836Z,10.21
2023-05-03T12:15:40.864Z,10.54
2023-05-03T12:16:40.244Z,10.86
2023-05-03T12:17:43.406Z,10.21
2023-05-03T12:18:40.580Z,10.86
2023-05-03T12:19:40.500Z,10.86
2023-05-03T12:21:17.773Z,10.21
2023-05-03T12:21:42.686Z,10.54
2023-05-03T12:22:40.315Z,11.18
2023-05-03T12:23:40.241Z,9.89
2023-05-03T12:24:40.297Z,10.86
2023-05-03T12:25:43.924Z,10.86
2023-05-03T12:26:42.192Z,10.21
2023-05-03T12:27:40.855Z,10.54
2023-05-03T12:28:40.108Z,10.86
2023-05-03T12:30:40.633Z,11.18
2023-05-03T12:31:40.104Z,10.86
2023-05-03T12:32:40.085Z,10.86
2023-05-03T12:33:43.303Z,10.86
2023-05-03T12:34:41.348Z,10.54
2023-05-03T12:35:40.981Z,10.86
2023-05-03T12:36:43.343Z,10.54
2023-05-03T12:37:42.678Z,10.21
2023-05-03T12:38:43.307Z,10.86
2023-05-03T12:39:40.798Z,10.54
2023-05-03T12:40:40.244Z,10.86
2023-05-03T12:42:06.501Z,11.18
2023-05-03T12:42:43.322Z,10.54
2023-05-03T12:43:41.579Z,10.54
2023-05-03T12:44:42.311Z,10.54
2023-05-03T12:45:40.784Z,11.18
2023-05-03T12:46:39.923Z,10.86
2023-05-03T12:47:43.735Z,10.54
2023-05-03T12:48:39.944Z,11.18
2023-05-03T12:49:40.237Z,11.18
2023-05-03T12:50:42.358Z,10.86
2023-05-03T12:52:39.952Z,10.54
2023-05-03T12:53:39.818Z,10.54
2023-05-03T12:54:42.119Z,11.18
2023-05-03T12:55:43.405Z,10.54